Time;durP1;ratioP1;P1;durP2;ratioP2;P2;SDS_P1;SDS_P2;PMS_P1;PMS_P2;Temp;Humidity;BMP_temperature;BMP_pressure;BME280_temperature;BME280_humidity;BME280_pressure;Samples;Min_cycle;Max_cycle;Signal;HPM_P1;HPM_P2
2023/07/19 00:00:11;;;;;;;;;;;16.50;99.90;;;;;;7324090;19;9444;-75
2023/07/19 00:02:41;;;;;;;;;;;16.40;99.90;;;;;;7326054;19;9362;-75
2023/07/19 00:05:11;;;;;;;;;;;16.40;99.90;;;;;;7325135;19;9545;-75
2023/07/19 00:07:40;;;;;;;;;;;16.40;99.90;;;;;;7320985;19;9199;-75
2023/07/19 00:10:12;;;;;;;;;;;16.30;99.90;;;;;;7325582;19;9157;-75
2023/07/19 00:12:41;;;;;;;;;;;16.30;99.90;;;;;;7325934;19;9405;-75
2023/07/19 00:15:11;;;;;;;;;;;16.30;99.90;;;;;;7322474;19;9685;-76
2023/07/19 00:17:41;;;;;;;;;;;16.30;99.90;;;;;;7322558;19;10279;-75
2023/07/19 00:20:11;;;;;;;;;;;16.30;99.90;;;;;;7325846;19;9594;-75
2023/07/19 00:22:40;;;;;;;;;;;16.30;99.90;;;;;;7324226;19;9508;-75
2023/07/19 00:25:12;;;;;;;;;;;16.30;99.90;;;;;;7319811;19;10917;-76
2023/07/19 00:27:41;;;;;;;;;;;16.30;99.90;;;;;;7323308;19;10414;-75
2023/07/19 00:30:11;;;;;;;;;;;16.30;99.90;;;;;;7324002;19;9008;-75
2023/07/19 00:32:40;;;;;;;;;;;16.30;99.90;;;;;;7323002;19;10510;-75
2023/07/19 00:35:10;;;;;;;;;;;16.20;99.90;;;;;;7322579;19;9329;-76
2023/07/19 00:37:39;;;;;;;;;;;16.30;99.90;;;;;;7322833;19;9055;-76
2023/07/19 00:40:13;;;;;;;;;;;16.30;99.90;;;;;;7323394;19;9320;-76
2023/07/19 00:42:42;;;;;;;;;;;16.30;99.90;;;;;;7323886;19;9257;-75
2023/07/19 00:45:12;;;;;;;;;;;16.30;99.90;;;;;;7321921;19;9000;-75
2023/07/19 00:47:42;;;;;;;;;;;16.20;99.90;;;;;;7322339;19;9498;-75
2023/07/19 00:50:12;;;;;;;;;;;16.20;99.90;;;;;;7324334;19;9228;-76
2023/07/19 00:52:42;;;;;;;;;;;16.20;99.90;;;;;;7323703;19;9986;-75
2023/07/19 00:55:17;;;;;;;;;;;16.20;99.90;;;;;;7322352;19;9253;-76
2023/07/19 00:57:46;;;;;;;;;;;16.20;99.90;;;;;;7321430;19;9472;-75
2023/07/19 01:00:16;;;;;;;;;;;16.10;99.90;;;;;;7319982;19;10234;-75
2023/07/19 01:02:45;;;;;;;;;;;16.00;99.90;;;;;;7323234;19;9453;-75
2023/07/19 01:05:14;;;;;;;;;;;16.00;99.90;;;;;;7320087;19;9504;-75
2023/07/19 01:07:44;;;;;;;;;;;16.00;99.90;;;;;;7322003;19;9633;-76
2023/07/19 01:10:15;;;;;;;;;;;16.00;99.90;;;;;;7322343;19;10778;-76
2023/07/19 01:12:44;;;;;;;;;;;15.90;99.90;;;;;;7323108;19;9421;-75
2023/07/19 01:15:13;;;;;;;;;;;15.80;99.90;;;;;;7320655;19;10279;-76
2023/07/19 01:17:42;;;;;;;;;;;15.90;99.90;;;;;;7319825;19;9414;-75
2023/07/19 01:20:12;;;;;;;;;;;15.80;99.90;;;;;;7321968;19;9428;-76
2023/07/19 01:22:46;;;;;;;;;;;15.80;99.90;;;;;;7322234;19;9217;-75
2023/07/19 01:25:15;;;;;;;;;;;15.80;99.90;;;;;;7319258;19;9208;-75
2023/07/19 01:27:44;;;;;;;;;;;15.80;99.90;;;;;;7322024;19;9354;-75
2023/07/19 01:30:14;;;;;;;;;;;15.80;99.90;;;;;;7320928;19;9512;-76
2023/07/19 01:32:44;;;;;;;;;;;15.80;99.90;;;;;;7320859;19;9271;-76
2023/07/19 01:35:14;;;;;;;;;;;15.80;99.90;;;;;;7320970;19;11513;-76
2023/07/19 01:37:46;;;;;;;;;;;15.80;99.90;;;;;;7320068;19;9079;-76
2023/07/19 01:40:16;;;;;;;;;;;15.80;99.90;;;;;;7322665;19;9173;-75
2023/07/19 01:42:45;;;;;;;;;;;15.80;99.90;;;;;;7321655;19;9449;-74
2023/07/19 01:45:14;;;;;;;;;;;15.80;99.90;;;;;;7319129;19;9245;-76
2023/07/19 01:47:43;;;;;;;;;;;15.80;99.90;;;;;;7321399;19;9605;-76
2023/07/19 01:50:13;;;;;;;;;;;15.80;99.90;;;;;;7321879;19;9439;-75
2023/07/19 01:52:46;;;;;;;;;;;15.80;99.90;;;;;;7320955;19;9200;-75
2023/07/19 01:55:15;;;;;;;;;;;15.90;99.90;;;;;;7322225;19;9431;-76
2023/07/19 01:57:44;;;;;;;;;;;15.80;99.90;;;;;;7319793;19;9457;-76
2023/07/19 02:00:14;;;;;;;;;;;15.80;99.90;;;;;;7320691;19;9321;-75
2023/07/19 02:02:43;;;;;;;;;;;15.80;99.90;;;;;;7320520;19;9244;-75
2023/07/19 02:05:12;;;;;;;;;;;15.80;99.90;;;;;;7319306;19;10153;-76
2023/07/19 02:07:41;;;;;;;;;;;15.70;99.90;;;;;;7320304;19;8945;-76
2023/07/19 02:10:13;;;;;;;;;;;15.70;99.90;;;;;;7320793;19;9208;-76
2023/07/19 02:12:42;;;;;;;;;;;15.70;99.90;;;;;;7321472;19;9459;-76
2023/07/19 02:15:12;;;;;;;;;;;15.70;99.90;;;;;;7318065;19;9441;-76
2023/07/19 02:17:41;;;;;;;;;;;15.70;99.90;;;;;;7321931;19;9237;-76
2023/07/19 02:20:12;;;;;;;;;;;15.60;99.90;;;;;;7321577;19;10182;-75
2023/07/19 02:22:41;;;;;;;;;;;15.70;99.90;;;;;;7322370;19;9374;-75
2023/07/19 02:25:13;;;;;;;;;;;15.70;99.90;;;;;;7318997;19;10202;-75
2023/07/19 02:27:42;;;;;;;;;;;15.70;99.90;;;;;;7320546;19;9433;-75
2023/07/19 02:30:12;;;;;;;;;;;15.80;99.90;;;;;;7321951;19;9450;-75
2023/07/19 02:32:42;;;;;;;;;;;15.80;99.90;;;;;;7326990;19;9402;-75
2023/07/19 02:35:11;;;;;;;;;;;15.80;99.90;;;;;;7327122;19;9217;-75
2023/07/19 02:37:40;;;;;;;;;;;15.80;99.90;;;;;;7328461;19;9446;-75
2023/07/19 02:40:13;;;;;;;;;;;15.90;99.90;;;;;;7324041;19;9139;-75
2023/07/19 02:42:42;;;;;;;;;;;15.80;99.90;;;;;;7329455;19;9609;-75
2023/07/19 02:45:12;;;;;;;;;;;15.80;99.90;;;;;;7323650;19;9267;-75
2023/07/19 02:47:41;;;;;;;;;;;15.80;99.90;;;;;;7328890;19;9518;-75
2023/07/19 02:50:11;;;;;;;;;;;15.80;99.90;;;;;;7326468;19;9180;-76
2023/07/19 02:52:39;;;;;;;;;;;15.80;99.90;;;;;;7327724;19;9457;-76
2023/07/19 02:55:09;;;;;;;;;;;15.80;99.90;;;;;;7326256;19;9175;-75
2023/07/19 02:57:41;;;;;;;;;;;15.80;99.90;;;;;;7327333;19;9475;-75
2023/07/19 03:00:11;;;;;;;;;;;15.80;99.90;;;;;;7323388;19;9062;-75
2023/07/19 03:02:40;;;;;;;;;;;15.80;99.90;;;;;;7328266;19;9265;-75
2023/07/19 03:05:10;;;;;;;;;;;15.70;99.90;;;;;;7324183;19;9288;-76
2023/07/19 03:07:39;;;;;;;;;;;15.70;99.90;;;;;;7327378;19;9405;-75
2023/07/19 03:10:08;;;;;;;;;;;15.70;99.90;;;;;;7324763;19;9493;-76
2023/07/19 03:12:40;;;;;;;;;;;15.60;99.90;;;;;;7327614;19;9894;-76
2023/07/19 03:15:10;;;;;;;;;;;15.60;99.90;;;;;;7325911;19;9323;-75
2023/07/19 03:17:59;;;;;;;;;;;15.60;99.90;;;;;;7326504;19;9367;-75
2023/07/19 03:20:28;;;;;;;;;;;15.60;99.90;;;;;;7329120;19;9436;-76
2023/07/19 03:22:58;;;;;;;;;;;15.60;99.90;;;;;;7328884;19;9440;-76
2023/07/19 03:25:27;;;;;;;;;;;15.70;99.90;;;;;;7323835;19;9659;-76
2023/07/19 03:27:59;;;;;;;;;;;15.70;99.90;;;;;;7325901;19;9193;-76
2023/07/19 03:30:27;;;;;;;;;;;15.70;99.90;;;;;;7325239;19;9442;-75
2023/07/19 03:32:56;;;;;;;;;;;15.70;99.90;;;;;;7324428;19;10153;-76
2023/07/19 03:35:25;;;;;;;;;;;15.60;99.90;;;;;;7325951;19;9208;-76
2023/07/19 03:37:54;;;;;;;;;;;15.60;99.90;;;;;;7325662;19;9200;-76
2023/07/19 03:40:23;;;;;;;;;;;15.60;99.90;;;;;;7322478;19;9208;-76
2023/07/19 03:42:53;;;;;;;;;;;15.60;99.90;;;;;;7322830;19;10538;-76
2023/07/19 03:45:27;;;;;;;;;;;15.50;99.90;;;;;;7324494;19;8944;-76
2023/07/19 03:47:56;;;;;;;;;;;15.50;99.90;;;;;;7325552;19;9204;-75
2023/07/19 03:50:26;;;;;;;;;;;15.50;99.90;;;;;;7326669;19;10334;-76
2023/07/19 03:52:55;;;;;;;;;;;15.50;99.90;;;;;;7324610;19;9534;-76
2023/07/19 03:55:24;;;;;;;;;;;15.50;99.90;;;;;;7324618;19;9488;-76
2023/07/19 03:57:53;;;;;;;;;;;15.40;99.90;;;;;;7325467;19;9250;-76
2023/07/19 04:00:25;;;;;;;;;;;15.40;99.90;;;;;;7324797;19;9100;-76
2023/07/19 04:02:54;;;;;;;;;;;15.40;99.90;;;;;;7322399;19;9517;-76
2023/07/19 04:05:23;;;;;;;;;;;15.40;99.90;;;;;;7323862;19;9521;-76
2023/07/19 04:07:52;;;;;;;;;;;15.40;99.90;;;;;;7325611;19;9367;-76
2023/07/19 04:10:21;;;;;;;;;;;15.40;99.90;;;;;;7323962;19;9467;-76
2023/07/19 04:12:50;;;;;;;;;;;15.40;99.90;;;;;;7324064;19;9609;-76
2023/07/19 04:15:19;;;;;;;;;;;15.50;99.90;;;;;;7324500;19;9245;-76
2023/07/19 04:17:51;;;;;;;;;;;15.40;99.90;;;;;;7324005;19;9494;-76
2023/07/19 04:20:20;;;;;;;;;;;15.40;99.90;;;;;;7321765;19;9227;-75
2023/07/19 04:22:49;;;;;;;;;;;15.40;99.90;;;;;;7323940;19;9200;-75
2023/07/19 04:25:18;;;;;;;;;;;15.40;99.90;;;;;;7323009;19;10680;-76
2023/07/19 04:27:47;;;;;;;;;;;15.40;99.90;;;;;;7325559;19;9177;-76
2023/07/19 04:30:16;;;;;;;;;;;15.40;99.90;;;;;;7324929;19;9496;-76
2023/07/19 04:32:46;;;;;;;;;;;15.50;99.90;;;;;;7323998;19;8944;-76
2023/07/19 04:35:17;;;;;;;;;;;15.40;99.90;;;;;;7324119;19;9388;-76
2023/07/19 04:37:46;;;;;;;;;;;15.40;99.90;;;;;;7322309;19;10651;-76
2023/07/19 04:40:16;;;;;;;;;;;15.50;99.90;;;;;;7324112;19;9257;-76
2023/07/19 04:42:45;;;;;;;;;;;15.50;99.90;;;;;;7325160;19;9330;-76
2023/07/19 04:45:14;;;;;;;;;;;15.50;99.90;;;;;;7324478;19;9259;-76
2023/07/19 04:47:43;;;;;;;;;;;15.50;99.90;;;;;;7324251;19;9429;-75
2023/07/19 04:50:13;;;;;;;;;;;15.50;99.90;;;;;;7323864;19;9131;-76
2023/07/19 04:52:46;;;;;;;;;;;15.60;99.90;;;;;;7323584;19;9162;-76
2023/07/19 04:55:15;;;;;;;;;;;15.60;99.90;;;;;;7323082;19;10651;-76
2023/07/19 04:57:44;;;;;;;;;;;15.60;99.90;;;;;;7322793;19;9331;-76
2023/07/19 05:00:14;;;;;;;;;;;15.60;99.90;;;;;;7320803;19;9507;-76
2023/07/19 05:02:44;;;;;;;;;;;15.70;99.90;;;;;;7323457;19;9209;-76
2023/07/19 05:05:14;;;;;;;;;;;15.80;99.90;;;;;;7320553;19;9229;-76
2023/07/19 05:07:45;;;;;;;;;;;15.80;99.90;;;;;;7321386;19;9948;-76
2023/07/19 05:10:14;;;;;;;;;;;15.80;99.90;;;;;;7323875;19;9182;-76
2023/07/19 05:12:43;;;;;;;;;;;15.80;99.90;;;;;;7326302;19;9181;-77
2023/07/19 05:15:12;;;;;;;;;;;15.90;99.90;;;;;;7324476;19;9170;-76
2023/07/19 05:17:41;;;;;;;;;;;15.90;99.90;;;;;;7320986;19;9258;-76
2023/07/19 05:20:12;;;;;;;;;;;16.00;99.90;;;;;;7321926;19;9659;-76
2023/07/19 05:22:41;;;;;;;;;;;16.00;99.90;;;;;;7322641;19;10636;-76
2023/07/19 05:25:13;;;;;;;;;;;16.00;99.90;;;;;;7319866;19;9380;-76
2023/07/19 05:27:41;;;;;;;;;;;16.00;99.90;;;;;;7323682;19;9232;-75
2023/07/19 05:30:12;;;;;;;;;;;16.10;99.90;;;;;;7322678;19;8944;-76
2023/07/19 05:32:41;;;;;;;;;;;16.20;99.90;;;;;;7320412;19;9455;-76
2023/07/19 05:35:10;;;;;;;;;;;16.20;99.90;;;;;;7320187;19;9467;-76
2023/07/19 05:37:39;;;;;;;;;;;16.30;99.90;;;;;;7320025;19;9501;-76
2023/07/19 05:40:13;;;;;;;;;;;16.30;99.90;;;;;;7322333;19;9348;-76
2023/07/19 05:42:42;;;;;;;;;;;16.30;99.90;;;;;;7321002;19;9474;-75
2023/07/19 05:45:11;;;;;;;;;;;16.40;99.90;;;;;;7322053;19;10116;-76
2023/07/19 05:47:41;;;;;;;;;;;16.40;99.90;;;;;;7320128;19;8948;-76
2023/07/19 05:50:11;;;;;;;;;;;16.40;99.90;;;;;;7320732;19;9503;-76
2023/07/19 05:52:40;;;;;;;;;;;16.40;99.90;;;;;;7321567;19;9197;-76
2023/07/19 05:55:12;;;;;;;;;;;16.50;99.90;;;;;;7321821;19;9252;-81
2023/07/19 05:57:41;;;;;;;;;;;16.50;99.90;;;;;;7318783;19;8985;-76
2023/07/19 06:00:24;;;;;;;;;;;16.50;99.90;;;;;;7318349;19;9441;-77
2023/07/19 06:02:54;;;;;;;;;;;16.70;99.90;;;;;;7318905;19;9471;-83
2023/07/19 06:05:23;;;;;;;;;;;16.80;99.90;;;;;;7315641;19;9509;-76
2023/07/19 06:07:52;;;;;;;;;;;17.00;99.90;;;;;;7316992;19;9280;-76
2023/07/19 06:10:24;;;;;;;;;;;17.00;99.90;;;;;;7316799;19;8944;-77
2023/07/19 06:12:53;;;;;;;;;;;17.00;99.90;;;;;;7321590;19;9189;-76
2023/07/19 06:15:22;;;;;;;;;;;16.90;99.90;;;;;;7232325;19;14053;-77
2023/07/19 06:17:48;;;;;;;;;;;16.80;99.90;;;;;;7319166;19;9294;-77
2023/07/19 06:20:17;;;;;;;;;;;16.90;99.90;;;;;;7321236;19;9315;-76
2023/07/19 06:22:46;;;;;;;;;;;17.00;99.90;;;;;;7320084;19;9169;-78
2023/07/19 06:25:16;;;;;;;;;;;17.10;99.90;;;;;;7315950;19;9612;-76
2023/07/19 06:27:47;;;;;;;;;;;17.10;99.90;;;;;;7316547;19;9223;-76
2023/07/19 06:30:17;;;;;;;;;;;17.20;99.90;;;;;;7315814;19;9281;-75
2023/07/19 06:32:46;;;;;;;;;;;17.30;99.90;;;;;;7319328;19;9299;-75
2023/07/19 06:35:15;;;;;;;;;;;17.50;99.90;;;;;;7317707;19;10348;-76
2023/07/19 06:37:44;;;;;;;;;;;17.60;99.90;;;;;;7312632;19;9272;-76
2023/07/19 06:40:15;;;;;;;;;;;17.80;99.90;;;;;;7316379;19;9269;-76
2023/07/19 06:42:47;;;;;;;;;;;17.90;99.90;;;;;;7313287;19;9629;-75
2023/07/19 06:45:16;;;;;;;;;;;18.00;99.90;;;;;;7313699;19;9182;-75
2023/07/19 06:47:46;;;;;;;;;;;18.10;99.90;;;;;;7313099;19;9526;-76
2023/07/19 06:50:15;;;;;;;;;;;18.20;99.90;;;;;;7318464;19;9635;-75
2023/07/19 06:52:44;;;;;;;;;;;18.20;99.90;;;;;;7319978;19;9301;-76
2023/07/19 06:55:13;;;;;;;;;;;18.30;99.90;;;;;;7313163;19;9127;-76
2023/07/19 06:57:42;;;;;;;;;;;18.30;99.90;;;;;;7316170;19;9264;-76
2023/07/19 07:00:15;;;;;;;;;;;18.30;99.90;;;;;;7317894;19;9181;-76
2023/07/19 07:02:45;;;;;;;;;;;18.30;99.90;;;;;;7312600;19;11095;-76
2023/07/19 07:05:14;;;;;;;;;;;18.30;99.90;;;;;;7320319;19;9214;-76
2023/07/19 07:07:43;;;;;;;;;;;18.30;99.90;;;;;;7320215;19;9125;-75
2023/07/19 07:10:12;;;;;;;;;;;18.20;99.90;;;;;;7321091;19;9235;-76
2023/07/19 07:12:43;;;;;;;;;;;18.10;99.90;;;;;;7320744;19;9504;-76
2023/07/19 07:15:14;;;;;;;;;;;18.00;99.90;;;;;;7320705;19;8944;-75
2023/07/19 07:17:44;;;;;;;;;;;18.00;99.90;;;;;;7325208;19;9248;-75
2023/07/19 07:20:13;;;;;;;;;;;18.00;99.90;;;;;;7326686;19;9243;-75
2023/07/19 07:22:42;;;;;;;;;;;17.90;99.90;;;;;;7326137;19;8944;-75
2023/07/19 07:25:12;;;;;;;;;;;17.60;99.90;;;;;;7328014;19;9559;-76
2023/07/19 07:27:41;;;;;;;;;;;17.60;99.90;;;;;;7324393;19;9209;-75
2023/07/19 07:30:11;;;;;;;;;;;17.50;99.90;;;;;;7326401;19;9690;-76
2023/07/19 07:32:44;;;;;;;;;;;17.40;99.90;;;;;;7323930;19;9354;-75
2023/07/19 07:35:13;;;;;;;;;;;17.40;99.90;;;;;;7326858;19;9233;-75
2023/07/19 07:37:42;;;;;;;;;;;17.60;99.90;;;;;;7325389;19;9271;-75
2023/07/19 07:40:12;;;;;;;;;;;17.70;99.90;;;;;;7326437;19;9185;-75
2023/07/19 07:42:41;;;;;;;;;;;17.70;99.90;;;;;;7323727;19;9646;-75
2023/07/19 07:45:11;;;;;;;;;;;18.00;99.90;;;;;;7325178;19;9580;-75
2023/07/19 07:47:43;;;;;;;;;;;18.20;99.90;;;;;;7323077;19;9435;-76
2023/07/19 07:50:13;;;;;;;;;;;18.20;99.90;;;;;;7327152;19;9259;-75
2023/07/19 07:52:42;;;;;;;;;;;18.30;99.90;;;;;;7324854;19;9201;-75
2023/07/19 07:55:12;;;;;;;;;;;18.40;99.90;;;;;;7324385;19;9281;-76
2023/07/19 07:57:41;;;;;;;;;;;18.60;99.90;;;;;;7324641;19;9305;-75
2023/07/19 08:00:11;;;;;;;;;;;18.70;99.90;;;;;;7324128;19;9188;-75
2023/07/19 08:02:43;;;;;;;;;;;18.60;99.90;;;;;;7324382;19;9406;-75
2023/07/19 08:05:12;;;;;;;;;;;18.50;99.90;;;;;;7325803;19;10360;-76
2023/07/19 08:07:41;;;;;;;;;;;18.80;99.90;;;;;;7321166;19;9319;-75
2023/07/19 08:10:11;;;;;;;;;;;18.90;99.90;;;;;;7325503;19;9189;-76
2023/07/19 08:12:41;;;;;;;;;;;19.20;99.90;;;;;;7325406;19;9546;-76
2023/07/19 08:15:11;;;;;;;;;;;19.20;99.90;;;;;;7324437;19;9576;-75
2023/07/19 08:17:44;;;;;;;;;;;19.40;99.90;;;;;;7323708;19;9271;-75
2023/07/19 08:20:14;;;;;;;;;;;19.60;99.90;;;;;;7321735;19;9630;-75
2023/07/19 08:22:43;;;;;;;;;;;19.80;99.90;;;;;;7325048;19;9477;-76
2023/07/19 08:25:12;;;;;;;;;;;19.80;99.90;;;;;;7325455;19;9249;-76
2023/07/19 08:27:41;;;;;;;;;;;20.00;99.90;;;;;;7321456;19;9490;-75
2023/07/19 08:30:15;;;;;;;;;;;20.30;99.90;;;;;;7322232;19;9315;-75
2023/07/19 08:32:49;;;;;;;;;;;20.30;99.90;;;;;;7324714;19;9235;-75
2023/07/19 08:35:19;;;;;;;;;;;20.50;99.90;;;;;;7323663;19;9398;-76
2023/07/19 08:37:49;;;;;;;;;;;20.70;99.90;;;;;;7322612;19;9229;-76
2023/07/19 08:40:19;;;;;;;;;;;20.80;99.90;;;;;;7323509;19;9398;-76
2023/07/19 08:42:51;;;;;;;;;;;20.70;99.90;;;;;;7322195;19;9166;-75
2023/07/19 08:45:26;;;;;;;;;;;20.80;99.90;;;;;;7323525;19;9127;-76
2023/07/19 08:47:58;;;;;;;;;;;21.00;99.90;;;;;;7322857;19;9645;-77
2023/07/19 08:50:29;;;;;;;;;;;21.10;99.90;;;;;;7324346;19;10032;-74
2023/07/19 08:53:02;;;;;;;;;;;21.10;99.90;;;;;;7323188;19;9003;-76
2023/07/19 08:55:33;;;;;;;;;;;21.00;99.90;;;;;;7324569;19;9253;-75
2023/07/19 08:58:02;;;;;;;;;;;20.80;99.90;;;;;;7323742;19;9446;-76
2023/07/19 09:00:34;;;;;;;;;;;20.80;99.90;;;;;;7323608;19;9210;-75
2023/07/19 09:03:05;;;;;;;;;;;20.80;99.90;;;;;;7322606;19;10850;-76
2023/07/19 09:05:38;;;;;;;;;;;20.90;99.90;;;;;;7323973;19;9326;-76
2023/07/19 09:08:09;;;;;;;;;;;21.20;99.90;;;;;;7287461;19;9449;-76
2023/07/19 09:10:38;;;;;;;;;;;21.30;99.90;;;;;;7320489;19;9344;-76
2023/07/19 09:13:08;;;;;;;;;;;21.50;99.90;;;;;;7322726;19;9204;-76
2023/07/19 09:15:37;;;;;;;;;;;21.40;99.90;;;;;;7322760;19;9265;-76
2023/07/19 09:18:09;;;;;;;;;;;21.10;99.50;;;;;;7322561;19;9397;-76
2023/07/19 09:20:39;;;;;;;;;;;21.00;99.90;;;;;;7319354;19;9213;-75
2023/07/19 09:23:09;;;;;;;;;;;21.10;99.90;;;;;;7323426;19;9229;-76
2023/07/19 09:25:53;;;;;;;;;;;21.30;99.90;;;;;;7321702;19;9243;-76
2023/07/19 09:28:25;;;;;;;;;;;21.50;99.90;;;;;;7320068;19;9704;-76
2023/07/19 09:30:58;;;;;;;;;;;21.70;99.90;;;;;;7322007;19;9324;-76
2023/07/19 09:33:31;;;;;;;;;;;21.80;99.90;;;;;;7320509;19;9385;-75
2023/07/19 09:36:01;;;;;;;;;;;22.00;99.90;;;;;;7321397;19;10140;-76
2023/07/19 09:38:35;;;;;;;;;;;22.20;99.90;;;;;;7321053;19;11090;-75
2023/07/19 09:41:06;;;;;;;;;;;22.30;99.90;;;;;;7320104;19;9417;-76
2023/07/19 09:43:37;;;;;;;;;;;22.30;99.90;;;;;;7321955;19;9393;-76
2023/07/19 09:46:07;;;;;;;;;;;22.50;99.90;;;;;;7319729;19;9216;-76
2023/07/19 09:48:39;;;;;;;;;;;22.50;99.90;;;;;;7321862;19;9233;-76
2023/07/19 09:51:09;;;;;;;;;;;22.70;99.90;;;;;;7320946;19;9458;-76
2023/07/19 09:53:41;;;;;;;;;;;22.80;99.90;;;;;;7322079;19;9512;-75
2023/07/19 09:56:13;;;;;;;;;;;22.90;99.30;;;;;;7319688;19;10150;-76
2023/07/19 09:58:44;;;;;;;;;;;23.10;98.90;;;;;;7321587;19;9485;-76
2023/07/19 10:01:14;;;;;;;;;;;23.20;98.20;;;;;;7321597;19;8945;-75
2023/07/19 10:03:46;;;;;;;;;;;23.10;95.30;;;;;;7321379;19;9426;-76
2023/07/19 10:06:17;;;;;;;;;;;22.90;97.90;;;;;;7321915;19;9212;-76
2023/07/19 10:08:46;;;;;;;;;;;22.60;98.20;;;;;;7320443;19;9320;-76
2023/07/19 10:11:24;;;;;;;;;;;22.20;99.00;;;;;;7320327;19;9395;-75
2023/07/19 10:13:59;;;;;;;;;;;21.50;98.60;;;;;;7321990;19;9117;-76
2023/07/19 10:16:36;;;;;;;;;;;21.30;99.90;;;;;;7320887;19;9646;-75
2023/07/19 10:19:15;;;;;;;;;;;21.10;99.90;;;;;;7319422;19;10409;-75
2023/07/19 10:22:04;;;;;;;;;;;21.00;99.90;;;;;;7295068;19;9304;-75
2023/07/19 10:24:34;;;;;;;;;;;20.90;99.90;;;;;;7317684;19;9321;-75
2023/07/19 10:27:04;;;;;;;;;;;20.90;99.90;;;;;;7317870;19;8944;-75
2023/07/19 10:29:43;;;;;;;;;;;20.70;99.90;;;;;;7319207;19;9202;-75
2023/07/19 10:32:13;;;;;;;;;;;20.70;99.90;;;;;;7307103;19;9535;-75
2023/07/19 10:34:49;;;;;;;;;;;20.70;99.90;;;;;;7307641;19;10689;-76
2023/07/19 10:37:18;;;;;;;;;;;20.80;99.90;;;;;;7318488;19;9237;-76
2023/07/19 10:39:47;;;;;;;;;;;20.60;99.90;;;;;;7318917;19;9376;-76
2023/07/19 10:42:17;;;;;;;;;;;20.80;99.90;;;;;;7319830;19;9461;-76
2023/07/19 10:44:46;;;;;;;;;;;20.90;99.90;;;;;;7321092;19;9497;-76
2023/07/19 10:47:16;;;;;;;;;;;21.10;99.90;;;;;;7318316;19;9459;-76
2023/07/19 10:49:49;;;;;;;;;;;21.10;99.90;;;;;;7310809;19;9487;-75
2023/07/19 10:52:23;;;;;;;;;;;21.20;99.90;;;;;;7322938;19;9574;-75
2023/07/19 10:55:01;;;;;;;;;;;21.10;99.90;;;;;;7325152;19;9524;-75
2023/07/19 10:57:30;;;;;;;;;;;21.00;99.90;;;;;;7326095;19;9517;-75
2023/07/19 10:59:59;;;;;;;;;;;21.00;99.90;;;;;;7326490;19;9577;-75
2023/07/19 11:02:28;;;;;;;;;;;21.30;99.90;;;;;;7327062;19;9201;-75
2023/07/19 11:05:02;;;;;;;;;;;21.20;99.60;;;;;;7322402;19;9479;-75
2023/07/19 11:07:34;;;;;;;;;;;21.10;99.90;;;;;;7323433;19;9472;-75
2023/07/19 11:10:04;;;;;;;;;;;20.80;99.40;;;;;;7324358;19;9197;-75
2023/07/19 11:12:33;;;;;;;;;;;20.60;99.90;;;;;;7324417;19;9391;-75
2023/07/19 11:15:03;;;;;;;;;;;20.60;99.90;;;;;;7326712;19;9461;-75
2023/07/19 11:17:33;;;;;;;;;;;20.50;99.90;;;;;;7326723;19;9214;-75
2023/07/19 11:20:06;;;;;;;;;;;20.40;99.90;;;;;;7324804;19;9270;-75
2023/07/19 11:22:35;;;;;;;;;;;20.60;99.90;;;;;;7324408;19;9209;-75
2023/07/19 11:25:13;;;;;;;;;;;20.70;99.90;;;;;;7325477;19;9256;-75
2023/07/19 11:27:42;;;;;;;;;;;20.70;99.90;;;;;;7321976;19;9311;-76
2023/07/19 11:30:12;;;;;;;;;;;20.40;99.90;;;;;;7319722;19;10200;-75
2023/07/19 11:32:40;;;;;;;;;;;20.20;99.90;;;;;;7321429;19;9318;-75
2023/07/19 11:35:12;;;;;;;;;;;20.20;99.90;;;;;;7323603;19;9367;-75
2023/07/19 11:37:41;;;;;;;;;;;20.30;99.90;;;;;;7322377;19;9005;-75
2023/07/19 11:40:16;;;;;;;;;;;20.30;99.90;;;;;;7325069;19;8944;-75
2023/07/19 11:42:51;;;;;;;;;;;20.50;99.90;;;;;;7326981;19;9240;-75
2023/07/19 11:45:23;;;;;;;;;;;20.50;99.90;;;;;;7323129;19;9296;-75
2023/07/19 11:47:54;;;;;;;;;;;20.50;99.60;;;;;;7322792;19;10153;-75
2023/07/19 11:50:26;;;;;;;;;;;20.50;99.90;;;;;;7325331;19;9206;-75
2023/07/19 11:53:01;;;;;;;;;;;20.60;99.90;;;;;;7323148;19;9225;-75
2023/07/19 11:55:32;;;;;;;;;;;20.60;99.50;;;;;;7327163;19;9397;-75
2023/07/19 11:58:02;;;;;;;;;;;20.50;99.80;;;;;;7321888;19;9213;-75
2023/07/19 12:00:33;;;;;;;;;;;20.50;99.90;;;;;;7324877;19;9219;-75
2023/07/19 12:03:02;;;;;;;;;;;20.60;99.40;;;;;;7322233;19;9261;-75
2023/07/19 12:05:34;;;;;;;;;;;20.50;99.90;;;;;;7323600;19;9160;-75
2023/07/19 12:08:05;;;;;;;;;;;21.00;99.90;;;;;;7322335;19;10511;-76
2023/07/19 12:10:35;;;;;;;;;;;21.10;99.30;;;;;;7324776;19;9518;-76
2023/07/19 12:13:04;;;;;;;;;;;21.30;97.40;;;;;;7325255;19;9257;-75
2023/07/19 12:15:33;;;;;;;;;;;21.30;97.70;;;;;;7321282;19;9201;-75
2023/07/19 12:18:02;;;;;;;;;;;21.40;96.20;;;;;;7322418;19;9057;-75
2023/07/19 12:20:34;;;;;;;;;;;21.20;96.40;;;;;;7319867;19;9538;-76
2023/07/19 12:23:03;;;;;;;;;;;21.00;96.50;;;;;;7323945;19;9535;-75
2023/07/19 12:25:32;;;;;;;;;;;21.00;96.80;;;;;;7321610;19;9766;-76
2023/07/19 12:28:01;;;;;;;;;;;21.20;97.80;;;;;;7321306;19;9313;-76
2023/07/19 12:30:30;;;;;;;;;;;21.30;95.90;;;;;;7321405;19;10329;-75
2023/07/19 12:33:00;;;;;;;;;;;21.30;97.80;;;;;;7319577;19;11063;-76
2023/07/19 12:35:29;;;;;;;;;;;21.40;97.40;;;;;;7321253;19;9504;-76
2023/07/19 12:38:01;;;;;;;;;;;21.20;94.80;;;;;;7321920;19;9471;-76
2023/07/19 12:40:30;;;;;;;;;;;21.30;95.00;;;;;;7322834;19;9421;-76
2023/07/19 12:43:00;;;;;;;;;;;21.10;94.40;;;;;;7324629;19;9235;-76
2023/07/19 12:45:28;;;;;;;;;;;21.00;95.70;;;;;;7324075;19;9281;-75
2023/07/19 12:47:57;;;;;;;;;;;20.90;94.70;;;;;;7323061;19;9217;-76
2023/07/19 12:50:28;;;;;;;;;;;21.20;96.70;;;;;;7322391;19;9635;-76
2023/07/19 12:52:57;;;;;;;;;;;21.30;95.40;;;;;;7322866;19;9205;-76
2023/07/19 12:55:29;;;;;;;;;;;21.40;94.60;;;;;;7323822;19;9289;-76
2023/07/19 12:57:58;;;;;;;;;;;21.30;92.10;;;;;;7323137;19;9295;-75
2023/07/19 13:00:27;;;;;;;;;;;21.40;94.60;;;;;;7323703;19;9161;-76
2023/07/19 13:02:56;;;;;;;;;;;21.20;93.20;;;;;;7323583;19;10348;-76
2023/07/19 13:05:25;;;;;;;;;;;21.10;92.20;;;;;;7322879;19;9204;-76
2023/07/19 13:07:54;;;;;;;;;;;21.20;92.20;;;;;;7321075;19;9359;-76
2023/07/19 13:10:23;;;;;;;;;;;21.50;92.30;;;;;;7321920;19;9434;-76
2023/07/19 13:12:55;;;;;;;;;;;21.80;92.20;;;;;;7322967;19;9197;-76
2023/07/19 13:15:24;;;;;;;;;;;22.10;91.80;;;;;;7320566;19;8944;-76
2023/07/19 13:17:53;;;;;;;;;;;22.50;90.70;;;;;;7318503;19;9232;-76
2023/07/19 13:20:23;;;;;;;;;;;22.50;90.00;;;;;;7323255;19;9249;-76
2023/07/19 13:22:52;;;;;;;;;;;22.60;90.20;;;;;;7322874;19;9188;-76
2023/07/19 13:25:21;;;;;;;;;;;22.60;87.10;;;;;;7323022;19;9306;-76
2023/07/19 13:27:50;;;;;;;;;;;22.40;88.40;;;;;;7322613;19;9573;-75
2023/07/19 13:30:22;;;;;;;;;;;22.40;90.10;;;;;;7321956;19;9664;-76
2023/07/19 13:32:51;;;;;;;;;;;22.30;89.10;;;;;;7319355;19;9181;-76
2023/07/19 13:35:20;;;;;;;;;;;22.10;86.40;;;;;;7316566;19;9317;-76
2023/07/19 13:37:49;;;;;;;;;;;22.00;86.60;;;;;;7321879;19;9531;-76
2023/07/19 13:40:18;;;;;;;;;;;21.70;89.40;;;;;;7320563;19;9464;-76
2023/07/19 13:42:47;;;;;;;;;;;21.60;90.50;;;;;;7319144;19;9337;-76
2023/07/19 13:45:17;;;;;;;;;;;21.20;91.60;;;;;;7320879;19;9415;-75
2023/07/19 13:47:48;;;;;;;;;;;21.10;91.20;;;;;;7320280;19;9583;-75
2023/07/19 13:50:17;;;;;;;;;;;21.30;92.60;;;;;;7322055;19;9407;-75
2023/07/19 13:52:46;;;;;;;;;;;21.50;92.80;;;;;;7321331;19;9582;-75
2023/07/19 13:55:16;;;;;;;;;;;21.70;92.20;;;;;;7322363;19;9108;-75
2023/07/19 13:57:45;;;;;;;;;;;21.60;91.90;;;;;;7320757;19;9222;-75
2023/07/19 14:00:15;;;;;;;;;;;21.60;91.60;;;;;;7321893;19;9011;-75
2023/07/19 14:02:45;;;;;;;;;;;21.80;92.80;;;;;;7320978;19;9293;-75
2023/07/19 14:05:17;;;;;;;;;;;21.80;92.20;;;;;;7322688;19;9257;-75
2023/07/19 14:07:46;;;;;;;;;;;21.50;91.90;;;;;;7319909;19;9496;-75
2023/07/19 14:10:15;;;;;;;;;;;21.10;92.60;;;;;;7322315;19;9613;-75
2023/07/19 14:12:44;;;;;;;;;;;20.80;94.00;;;;;;7321668;19;9517;-75
2023/07/19 14:15:13;;;;;;;;;;;20.70;95.70;;;;;;7321666;19;11109;-75
2023/07/19 14:17:42;;;;;;;;;;;20.40;96.20;;;;;;7319097;19;9232;-75
2023/07/19 14:20:14;;;;;;;;;;;20.30;96.30;;;;;;7319230;19;9233;-75
2023/07/19 14:22:46;;;;;;;;;;;20.10;97.00;;;;;;7321858;19;8949;-75
2023/07/19 14:25:15;;;;;;;;;;;20.10;97.80;;;;;;7320004;19;9177;-75
2023/07/19 14:27:44;;;;;;;;;;;20.10;97.80;;;;;;7325665;19;9649;-75
2023/07/19 14:30:14;;;;;;;;;;;20.00;98.20;;;;;;7323138;19;9182;-75
2023/07/19 14:32:42;;;;;;;;;;;20.10;98.20;;;;;;7326064;19;8944;-75
2023/07/19 14:35:11;;;;;;;;;;;20.50;97.40;;;;;;7327140;19;8945;-75
2023/07/19 14:37:41;;;;;;;;;;;20.40;97.40;;;;;;7326540;19;9590;-75
2023/07/19 14:40:14;;;;;;;;;;;20.40;97.10;;;;;;7320985;19;9569;-74
2023/07/19 14:42:42;;;;;;;;;;;20.30;97.10;;;;;;7327395;19;9436;-74
2023/07/19 14:45:12;;;;;;;;;;;20.20;97.50;;;;;;7327259;19;9426;-74